createdAt,value
2022-09-18T00:02:05.333Z,3.70
2022-09-18T00:04:46.141Z,7.30
2022-09-18T00:07:30.225Z,5.20
2022-09-18T00:10:13.906Z,5.60
2022-09-18T00:12:55.215Z,6.40
2022-09-18T00:15:38.729Z,5.90
2022-09-18T00:18:19.704Z,6.40
2022-09-18T00:21:02.798Z,3.70
2022-09-18T00:23:44.594Z,4.60
2022-09-18T00:26:33.657Z,4.20
2022-09-18T00:29:15.777Z,4.60
2022-09-18T00:32:00.831Z,5.90
2022-09-18T00:34:43.403Z,5.30
2022-09-18T00:37:25.768Z,4.10
2022-09-18T00:40:08.124Z,3.40
2022-09-18T00:42:54.519Z,2.30
2022-09-18T00:45:35.394Z,3.80
2022-09-18T00:48:20.150Z,2.30
2022-09-18T00:51:05.190Z,2.90
2022-09-18T00:53:56.379Z,1.80
2022-09-18T00:56:37.471Z,1.10
2022-09-18T00:59:20.586Z,4.60
2022-09-18T01:02:02.573Z,2.90
2022-09-18T01:04:49.679Z,1.90
2022-09-18T01:07:39.757Z,2.10
2022-09-18T01:10:51.405Z,2.10
2022-09-18T01:14:02.454Z,2.00
2022-09-18T01:17:05.885Z,1.60
2022-09-18T01:20:21.915Z,3.20
2022-09-18T01:23:16.896Z,1.50
2022-09-18T01:26:23.427Z,1.00
2022-09-18T01:29:27.452Z,0.50
2022-09-18T01:32:21.236Z,0.70
2022-09-18T01:35:29.884Z,2.20
2022-09-18T01:38:18.952Z,0.60
2022-09-18T01:41:17.421Z,2.80
2022-09-18T01:44:07.283Z,1.20
2022-09-18T01:46:56.864Z,1.00
2022-09-18T01:49:49.025Z,0.20
2022-09-18T01:52:47.806Z,1.90
2022-09-18T01:55:33.049Z,0.20
2022-09-18T01:58:27.952Z,0.50
2022-09-18T02:01:17.627Z,0.60
2022-09-18T02:04:19.584Z,1.30
2022-09-18T02:07:07.582Z,1.20
2022-09-18T02:09:51.935Z,2.00
2022-09-18T02:12:38.996Z,0.90
2022-09-18T02:15:26.563Z,2.30
2022-09-18T02:18:19.184Z,3.00
2022-09-18T02:21:03.319Z,1.30
2022-09-18T02:23:47.929Z,0.70
2022-09-18T02:26:31.784Z,0.70
2022-09-18T02:29:16.966Z,1.00
2022-09-18T02:32:00.754Z,1.20
2022-09-18T02:34:44.417Z,0.90
2022-09-18T02:37:51.570Z,1.00
2022-09-18T02:40:47.390Z,0.50
2022-09-18T02:43:47.695Z,0.70
2022-09-18T02:46:43.267Z,0.80
2022-09-18T02:49:53.584Z,0.30
2022-09-18T02:52:44.777Z,0.60
2022-09-18T02:56:01.315Z,0.40
2022-09-18T02:59:11.571Z,1.60
2022-09-18T03:02:03.280Z,0.80
2022-09-18T03:04:47.018Z,1.50
2022-09-18T03:07:44.983Z,2.40
2022-09-18T03:10:28.793Z,0.50
2022-09-18T03:13:11.911Z,0.50
2022-09-18T03:15:52.834Z,1.30
2022-09-18T03:18:39.078Z,2.60
2022-09-18T03:21:19.605Z,1.50
2022-09-18T03:24:02.329Z,1.50
2022-09-18T03:26:44.222Z,0.80
2022-09-18T03:29:29.602Z,0.80
2022-09-18T03:32:10.629Z,1.30
2022-09-18T03:35:01.022Z,0.70
2022-09-18T03:37:41.453Z,2.60
2022-09-18T03:40:31.801Z,2.50
2022-09-18T03:43:16.430Z,3.40
2022-09-18T03:46:00.025Z,1.40
2022-09-18T03:48:40.736Z,1.60
2022-09-18T03:51:25.339Z,0.90
2022-09-18T03:54:06.277Z,0.50
2022-09-18T03:57:07.439Z,1.00
2022-09-18T04:00:03.358Z,2.10
2022-09-18T04:03:01.080Z,1.10
2022-09-18T04:06:00.878Z,1.70
2022-09-18T04:08:50.462Z,0.90
2022-09-18T04:11:46.399Z,1.30
2022-09-18T04:17:12.062Z,0.70
2022-09-18T04:19:59.397Z,4.00
2022-09-18T04:22:39.865Z,1.50
2022-09-18T04:25:27.081Z,2.50
2022-09-18T04:28:08.336Z,1.30
2022-09-18T04:30:57.789Z,0.60
2022-09-18T04:33:38.741Z,1.50
2022-09-18T04:36:24.101Z,0.80
2022-09-18T04:39:04.751Z,1.50
2022-09-18T04:41:50.936Z,1.60
2022-09-18T04:44:31.633Z,1.50
2022-09-18T04:47:19.403Z,1.30
2022-09-18T04:50:03.346Z,1.50
2022-09-18T04:52:46.792Z,3.00
2022-09-18T04:55:32.256Z,2.00
2022-09-18T04:58:16.397Z,4.40
2022-09-18T05:00:58.051Z,5.00
2022-09-18T05:03:41.454Z,2.20
2022-09-18T05:06:28.128Z,2.20
2022-09-18T05:09:14.327Z,3.80
2022-09-18T05:11:55.839Z,1.10
2022-09-18T05:14:40.220Z,1.50
2022-09-18T05:17:23.912Z,1.10
2022-09-18T05:20:21.172Z,0.80
2022-09-18T05:23:05.512Z,0.60
2022-09-18T05:25:46.084Z,0.40
2022-09-18T05:28:26.824Z,0.80
2022-09-18T05:31:11.047Z,1.00
2022-09-18T05:33:56.448Z,0.30
2022-09-18T05:36:39.460Z,2.00
2022-09-18T05:39:22.202Z,0.40
2022-09-18T05:42:08.476Z,1.30
2022-09-18T05:44:49.382Z,0.20
2022-09-18T05:47:39.743Z,0.80
2022-09-18T05:50:21.812Z,0.30
2022-09-18T05:53:21.155Z,0.60
2022-09-18T05:56:11.667Z,0.60
2022-09-18T05:58:58.704Z,0.60
2022-09-18T06:01:47.004Z,0.20
2022-09-18T06:04:33.779Z,0.20
2022-09-18T06:07:21.300Z,1.80
2022-09-18T06:10:06.945Z,1.10
2022-09-18T06:12:51.418Z,0.30
2022-09-18T06:15:35.298Z,1.10
2022-09-18T06:18:20.349Z,0.30
2022-09-18T06:21:04.487Z,0.60
2022-09-18T06:23:47.506Z,1.10
2022-09-18T06:26:43.786Z,1.00
2022-09-18T06:29:23.978Z,0.70
2022-09-18T06:32:19.276Z,0.50
2022-09-18T06:34:59.427Z,0.30
2022-09-18T06:37:46.150Z,0.90
2022-09-18T06:40:53.101Z,0.30
2022-09-18T06:43:59.866Z,0.70
2022-09-18T06:46:54.257Z,0.30
2022-09-18T06:49:47.201Z,3.10
2022-09-18T06:52:28.467Z,0.90
2022-09-18T06:55:12.971Z,0.50
2022-09-18T06:58:03.392Z,0.40
2022-09-18T07:00:47.080Z,0.50
2022-09-18T07:03:32.854Z,1.00
2022-09-18T07:06:43.047Z,0.60
2022-09-18T07:09:23.625Z,0.90
2022-09-18T07:12:06.935Z,0.40
2022-09-18T07:15:00.309Z,1.20
2022-09-18T07:17:46.479Z,2.80
2022-09-18T07:20:28.965Z,0.80
2022-09-18T07:23:12.670Z,0.40
2022-09-18T07:25:59.301Z,2.60
2022-09-18T07:28:46.590Z,1.00
2022-09-18T07:31:33.239Z,1.80
2022-09-18T07:34:21.856Z,2.50
2022-09-18T07:37:05.395Z,4.10
2022-09-18T07:39:50.095Z,3.20
2022-09-18T07:42:52.025Z,1.20
2022-09-18T07:45:36.515Z,0.20
2022-09-18T07:48:21.462Z,5.30
2022-09-18T07:51:05.855Z,1.40
2022-09-18T07:53:50.372Z,1.50
2022-09-18T07:56:41.616Z,3.00
2022-09-18T07:59:25.992Z,5.20
2022-09-18T08:02:14.386Z,0.70
2022-09-18T08:04:58.431Z,1.30
2022-09-18T08:07:48.734Z,1.10
2022-09-18T08:10:47.497Z,1.70
2022-09-18T08:13:46.445Z,3.20
2022-09-18T08:16:47.908Z,4.50
2022-09-18T08:19:39.943Z,2.80
2022-09-18T08:22:51.903Z,2.40
2022-09-18T08:25:43.174Z,2.60
2022-09-18T08:28:25.005Z,4.30
2022-09-18T08:31:15.790Z,2.90
2022-09-18T08:33:56.738Z,3.00
2022-09-18T08:36:42.987Z,6.70
2022-09-18T08:39:31.034Z,4.10
2022-09-18T08:42:57.682Z,6.50
2022-09-18T08:46:02.228Z,11.70
2022-09-18T08:49:08.591Z,7.80
2022-09-18T08:52:09.705Z,3.90
2022-09-18T08:55:06.753Z,3.40
2022-09-18T08:58:24.270Z,3.80
2022-09-18T09:01:15.994Z,6.90
2022-09-18T09:04:28.541Z,5.80
2022-09-18T09:07:42.354Z,8.60
2022-09-18T09:10:26.626Z,6.60
2022-09-18T09:13:24.543Z,5.50
2022-09-18T09:16:18.310Z,8.60
2022-09-18T09:19:32.303Z,8.40
2022-09-18T09:22:20.090Z,8.40
2022-09-18T09:25:32.425Z,12.30
2022-09-18T09:28:40.106Z,8.70
2022-09-18T09:31:51.094Z,6.60
2022-09-18T09:35:09.532Z,5.10
2022-09-18T09:38:01.948Z,8.70
2022-09-18T09:40:55.575Z,8.40
2022-09-18T09:43:48.047Z,7.90
2022-09-18T09:46:52.820Z,12.70
2022-09-18T09:50:12.737Z,12.00
2022-09-18T09:53:00.448Z,7.30
2022-09-18T09:56:11.202Z,9.90
2022-09-18T09:58:59.274Z,7.80
2022-09-18T10:01:53.423Z,9.00
2022-09-18T10:04:52.002Z,16.00
2022-09-18T10:07:41.173Z,9.10
2022-09-18T10:10:39.497Z,9.00
2022-09-18T10:13:40.691Z,14.20
2022-09-18T10:16:31.197Z,14.50
2022-09-18T10:19:20.658Z,7.00
2022-09-18T10:22:03.371Z,12.50
2022-09-18T10:24:55.824Z,9.30
2022-09-18T10:27:41.575Z,12.10
2022-09-18T10:30:24.376Z,7.50
2022-09-18T10:33:09.729Z,11.90
2022-09-18T10:35:53.866Z,8.10
2022-09-18T10:38:43.271Z,7.10
2022-09-18T10:41:48.870Z,12.60
2022-09-18T10:44:59.206Z,17.60
2022-09-18T10:47:52.300Z,13.90
2022-09-18T10:50:38.281Z,16.90
2022-09-18T10:53:33.668Z,12.50
2022-09-18T10:56:26.725Z,13.50
2022-09-18T10:59:38.444Z,13.70
2022-09-18T11:02:24.435Z,18.20
2022-09-18T11:05:09.293Z,15.20
2022-09-18T11:07:55.467Z,13.40
2022-09-18T11:10:45.210Z,9.80
2022-09-18T11:13:35.052Z,12.20
2022-09-18T11:16:39.813Z,11.20
2022-09-18T11:19:44.533Z,5.90
2022-09-18T11:22:54.214Z,11.00
2022-09-18T11:25:38.821Z,9.50
2022-09-18T11:28:37.195Z,15.40
2022-09-18T11:31:25.356Z,8.20
2022-09-18T11:34:21.912Z,6.10
2022-09-18T11:37:10.483Z,12.20
2022-09-18T11:40:05.401Z,10.30
2022-09-18T11:42:53.099Z,8.80
2022-09-18T11:45:59.672Z,9.30
2022-09-18T11:48:42.239Z,9.50
2022-09-18T11:51:32.770Z,6.90
2022-09-18T11:54:20.935Z,8.10
2022-09-18T11:57:10.796Z,6.10
2022-09-18T12:00:16.805Z,7.00
2022-09-18T12:03:50.301Z,4.10
2022-09-18T12:07:01.905Z,6.60
2022-09-18T12:10:04.621Z,8.20
2022-09-18T12:12:48.831Z,4.10
2022-09-18T12:15:41.237Z,4.90
2022-09-18T12:18:33.165Z,10.00
2022-09-18T12:21:26.403Z,5.20
2022-09-18T12:24:07.378Z,10.60
2022-09-18T12:27:27.852Z,8.10
2022-09-18T12:30:14.541Z,5.10
2022-09-18T12:33:18.107Z,5.20
2022-09-18T12:36:13.647Z,5.10
2022-09-18T12:39:28.475Z,6.30
2022-09-18T12:42:24.773Z,38.40
2022-09-18T12:45:22.332Z,5.60
2022-09-18T12:48:38.249Z,4.40
2022-09-18T12:51:54.718Z,6.80
2022-09-18T12:54:47.964Z,6.00
2022-09-18T12:57:40.840Z,6.40
2022-09-18T13:00:26.292Z,11.70
2022-09-18T13:03:20.210Z,6.20
2022-09-18T13:06:11.221Z,7.90
2022-09-18T13:09:25.960Z,8.70
2022-09-18T13:12:11.219Z,5.30
2022-09-18T13:15:04.830Z,6.40
2022-09-18T13:17:53.041Z,5.30
2022-09-18T13:20:47.659Z,8.40
2022-09-18T13:23:49.470Z,7.30
2022-09-18T13:26:38.463Z,7.00
2022-09-18T13:29:56.380Z,7.10
2022-09-18T13:32:43.134Z,14.70
2022-09-18T13:35:39.450Z,7.70
2022-09-18T13:38:28.366Z,10.20
2022-09-18T13:41:15.879Z,6.70
2022-09-18T13:44:11.361Z,7.90
2022-09-18T13:46:55.487Z,4.00
2022-09-18T13:49:51.110Z,6.60
2022-09-18T13:52:41.776Z,7.00
2022-09-18T13:55:32.967Z,2.40
2022-09-18T13:58:39.883Z,5.30
2022-09-18T14:02:00.841Z,7.60
2022-09-18T14:04:53.878Z,7.40
2022-09-18T14:07:42.933Z,3.40
2022-09-18T14:11:14.117Z,4.30
2022-09-18T14:14:06.616Z,5.50
2022-09-18T14:16:48.576Z,4.20
2022-09-18T14:19:43.011Z,5.00
2022-09-18T14:22:38.731Z,4.50
2022-09-18T14:25:23.049Z,5.70
2022-09-18T14:28:08.691Z,3.90
2022-09-18T14:30:52.170Z,10.80
2022-09-18T14:33:38.888Z,3.40
2022-09-18T14:36:23.829Z,4.60
2022-09-18T14:39:04.402Z,5.60
2022-09-18T14:41:49.640Z,5.30
2022-09-18T14:44:31.848Z,4.80
2022-09-18T14:47:27.964Z,5.70
2022-09-18T14:50:08.760Z,9.60
2022-09-18T14:52:55.905Z,7.00
2022-09-18T14:55:45.606Z,5.00
2022-09-18T14:58:38.097Z,8.10
2022-09-18T15:01:29.541Z,3.90
2022-09-18T15:04:23.668Z,3.70
2022-09-18T15:07:03.999Z,3.80
2022-09-18T15:09:51.677Z,4.70
2022-09-18T15:12:36.171Z,3.70
2022-09-18T15:15:39.492Z,5.20
2022-09-18T15:18:31.386Z,5.60
2022-09-18T15:21:35.467Z,9.00
2022-09-18T15:24:22.187Z,7.10
2022-09-18T15:27:14.005Z,5.50
2022-09-18T15:30:10.954Z,5.80
2022-09-18T15:35:44.423Z,3.70
2022-09-18T15:38:33.459Z,4.70
2022-09-18T15:41:29.255Z,3.50
2022-09-18T15:44:31.529Z,6.20
2022-09-18T15:47:43.630Z,7.20
2022-09-18T15:50:23.709Z,5.70
2022-09-18T15:53:05.939Z,5.10
2022-09-18T15:56:01.204Z,3.50
2022-09-18T15:58:47.525Z,3.50
2022-09-18T16:01:33.364Z,7.80
2022-09-18T16:04:36.583Z,3.50
2022-09-18T16:07:42.921Z,5.40
2022-09-18T16:10:42.149Z,6.40
2022-09-18T16:13:27.943Z,6.00
2022-09-18T16:16:17.115Z,4.30
2022-09-18T16:19:22.009Z,6.40
2022-09-18T16:22:01.827Z,6.70
2022-09-18T16:24:51.184Z,9.40
2022-09-18T16:27:32.318Z,10.00
2022-09-18T16:30:13.918Z,7.80
2022-09-18T16:32:53.962Z,13.30
2022-09-18T16:35:34.998Z,11.10
2022-09-18T16:38:15.334Z,6.40
2022-09-18T16:40:58.743Z,11.10
2022-09-18T16:43:39.641Z,3.50
2022-09-18T16:46:28.168Z,5.10
2022-09-18T16:49:08.435Z,3.30
2022-09-18T16:51:49.162Z,3.10
2022-09-18T16:54:30.106Z,5.20
2022-09-18T16:57:17.520Z,9.50
2022-09-18T16:59:58.185Z,6.20
2022-09-18T17:02:48.176Z,5.70
2022-09-18T17:05:28.593Z,3.70
2022-09-18T17:08:11.404Z,5.30
2022-09-18T17:10:51.975Z,6.90
2022-09-18T17:13:34.471Z,7.30
2022-09-18T17:16:26.103Z,7.80
2022-09-18T17:19:22.951Z,5.80
2022-09-18T17:22:03.327Z,6.20
2022-09-18T17:24:47.084Z,3.60
2022-09-18T17:27:29.355Z,3.90
2022-09-18T17:30:14.929Z,8.20
2022-09-18T17:32:57.149Z,5.50
2022-09-18T17:35:40.181Z,3.90
2022-09-18T17:38:21.566Z,2.50
2022-09-18T17:41:09.821Z,5.20
2022-09-18T17:43:56.552Z,6.80
2022-09-18T17:46:42.305Z,8.60
2022-09-18T17:49:26.237Z,8.60
2022-09-18T17:52:11.669Z,7.60
2022-09-18T17:54:53.622Z,8.30
2022-09-18T17:57:34.395Z,5.30
2022-09-18T18:00:19.839Z,4.10
2022-09-18T18:03:04.079Z,10.80
2022-09-18T18:05:43.676Z,6.20
2022-09-18T18:08:26.986Z,5.20
2022-09-18T18:11:15.994Z,4.10
2022-09-18T18:13:56.690Z,5.60
2022-09-18T18:16:38.377Z,5.00
2022-09-18T18:19:25.206Z,4.50
2022-09-18T18:22:04.940Z,5.50
2022-09-18T18:24:48.818Z,5.40
2022-09-18T18:27:32.556Z,5.90
2022-09-18T18:30:13.655Z,2.60
2022-09-18T18:32:57.343Z,4.40
2022-09-18T18:35:39.686Z,2.90
2022-09-18T18:38:24.604Z,4.10
2022-09-18T18:41:10.641Z,3.50
2022-09-18T18:43:50.891Z,2.90
2022-09-18T18:46:41.498Z,2.70
2022-09-18T18:49:25.565Z,2.30
2022-09-18T18:52:11.825Z,3.20
2022-09-18T18:54:54.343Z,1.50
2022-09-18T18:57:33.792Z,1.20
2022-09-18T19:00:17.337Z,2.30
2022-09-18T19:02:58.997Z,2.20
2022-09-18T19:05:40.332Z,2.30
2022-09-18T19:11:08.192Z,3.60
2022-09-18T19:13:51.803Z,2.20
2022-09-18T19:16:35.972Z,2.00
2022-09-18T19:19:19.353Z,1.50
2022-09-18T19:22:07.099Z,2.10
2022-09-18T19:24:50.231Z,2.70
2022-09-18T19:27:31.876Z,2.80
2022-09-18T19:30:12.053Z,2.60
2022-09-18T19:32:56.726Z,2.90
2022-09-18T19:35:39.484Z,1.30
2022-09-18T19:38:24.377Z,2.80
2022-09-18T19:41:11.656Z,2.90
2022-09-18T19:43:52.169Z,4.20
2022-09-18T19:46:40.709Z,2.50
2022-09-18T19:49:25.159Z,4.20
2022-09-18T19:52:11.568Z,3.90
2022-09-18T19:54:56.073Z,2.00
2022-09-18T19:57:40.155Z,2.30
2022-09-18T20:00:25.256Z,1.80
2022-09-18T20:03:08.279Z,1.80
2022-09-18T20:08:32.475Z,2.20
2022-09-18T20:11:16.427Z,2.70
2022-09-18T20:14:02.171Z,1.80
2022-09-18T20:16:44.793Z,3.60
2022-09-18T20:19:30.805Z,3.10
2022-09-18T20:22:13.250Z,2.50
2022-09-18T20:25:00.318Z,4.10
2022-09-18T20:27:47.280Z,2.50
2022-09-18T20:30:31.639Z,1.50
2022-09-18T20:33:11.940Z,4.40
2022-09-18T20:36:04.191Z,3.10
2022-09-18T20:38:46.391Z,1.90
2022-09-18T20:41:35.672Z,4.90
2022-09-18T20:44:16.835Z,2.90
2022-09-18T20:47:01.732Z,3.80
2022-09-18T20:49:46.782Z,1.70
2022-09-18T20:52:32.608Z,2.60
2022-09-18T20:55:24.013Z,1.70
2022-09-18T20:58:09.695Z,1.60
2022-09-18T21:00:53.973Z,2.80
2022-09-18T21:03:38.755Z,3.40
2022-09-18T21:06:22.788Z,2.20
2022-09-18T21:09:08.969Z,1.80
2022-09-18T21:11:50.613Z,1.00
2022-09-18T21:14:35.253Z,2.90
2022-09-18T21:17:15.750Z,2.30
2022-09-18T21:19:57.365Z,1.60
2022-09-18T21:22:40.598Z,2.10
2022-09-18T21:25:21.622Z,1.30
2022-09-18T21:28:02.463Z,1.90
2022-09-18T21:30:49.925Z,1.70
2022-09-18T21:33:33.965Z,2.20
2022-09-18T21:36:15.851Z,1.50
2022-09-18T21:38:58.421Z,1.70
2022-09-18T21:41:44.424Z,1.40
2022-09-18T21:44:32.136Z,1.40
2022-09-18T21:47:17.092Z,3.40
2022-09-18T21:49:57.652Z,7.30
2022-09-18T21:52:41.396Z,1.60
2022-09-18T21:55:27.980Z,2.20
2022-09-18T21:58:15.949Z,3.70
2022-09-18T22:01:00.685Z,1.20
2022-09-18T22:03:41.148Z,4.20
2022-09-18T22:06:23.281Z,4.10
2022-09-18T22:09:09.871Z,1.90
2022-09-18T22:11:54.665Z,2.00
2022-09-18T22:14:40.334Z,2.30
2022-09-18T22:17:24.522Z,1.40
2022-09-18T22:20:07.563Z,3.00
2022-09-18T22:22:50.873Z,3.60
2022-09-18T22:25:32.302Z,2.00
2022-09-18T22:28:16.230Z,9.90
2022-09-18T22:30:58.827Z,2.10
2022-09-18T22:33:42.045Z,4.70
2022-09-18T22:36:22.981Z,3.00
2022-09-18T22:39:06.054Z,1.10
2022-09-18T22:41:48.917Z,2.70
2022-09-18T22:44:32.399Z,1.60
2022-09-18T22:47:16.909Z,2.50
2022-09-18T22:49:57.863Z,4.00
2022-09-18T22:52:42.337Z,6.80
2022-09-18T22:55:25.469Z,2.30
2022-09-18T22:58:10.257Z,6.90
2022-09-18T23:00:53.326Z,2.40
2022-09-18T23:03:34.751Z,1.70
2022-09-18T23:06:15.309Z,2.60
2022-09-18T23:08:56.230Z,4.60
2022-09-18T23:11:47.308Z,2.50
2022-09-18T23:14:33.551Z,3.00
2022-09-18T23:17:14.005Z,2.20
2022-09-18T23:19:58.277Z,4.60
2022-09-18T23:22:38.975Z,1.70
2022-09-18T23:25:23.263Z,3.30
2022-09-18T23:28:04.224Z,1.60
2022-09-18T23:30:45.908Z,3.00
2022-09-18T23:33:31.558Z,2.70
2022-09-18T23:36:25.006Z,3.50
2022-09-18T23:39:33.087Z,2.40
2022-09-18T23:42:15.138Z,1.20
2022-09-18T23:45:00.988Z,3.00
2022-09-18T23:47:42.606Z,2.90
2022-09-18T23:50:23.628Z,3.10
2022-09-18T23:53:07.197Z,1.70
2022-09-18T23:55:53.782Z,2.20
2022-09-18T23:58:37.059Z,2.30
